createdAt,value
2024-05-09T00:00:54.886Z,2.78
2024-05-09T00:03:44.602Z,2.47
2024-05-09T00:06:16.275Z,2.63
2024-05-09T00:08:47.019Z,2.10
2024-05-09T00:11:20.940Z,2.70
2024-05-09T00:13:51.877Z,2.50
2024-05-09T00:16:23.087Z,2.33
2024-05-09T00:18:56.432Z,2.80
2024-05-09T00:21:27.774Z,2.30
2024-05-09T00:23:58.517Z,2.90
2024-05-09T00:26:32.364Z,2.65
2024-05-09T00:29:03.214Z,2.80
2024-05-09T00:31:34.298Z,3.17
2024-05-09T00:34:06.137Z,2.75
2024-05-09T00:36:37.211Z,2.80
2024-05-09T00:39:07.866Z,2.97
2024-05-09T00:41:41.707Z,2.58
2024-05-09T00:44:12.439Z,2.60
2024-05-09T00:46:44.525Z,2.78
2024-05-09T00:49:16.238Z,2.53
2024-05-09T00:51:48.529Z,2.47
2024-05-09T00:54:20.110Z,2.78
2024-05-09T00:56:55.687Z,2.90
2024-05-09T00:59:27.958Z,3.55
2024-05-09T01:02:01.345Z,3.33
2024-05-09T01:04:32.187Z,3.10
2024-05-09T01:07:03.586Z,3.50
2024-05-09T01:09:34.322Z,3.78
2024-05-09T01:12:09.480Z,3.58
2024-05-09T01:14:40.354Z,3.97
2024-05-09T01:17:11.589Z,3.13
2024-05-09T01:19:42.699Z,2.75
2024-05-09T01:22:13.981Z,2.95
2024-05-09T01:24:47.223Z,2.85
2024-05-09T01:27:18.316Z,3.00
2024-05-09T01:29:49.168Z,3.30
2024-05-09T01:32:20.269Z,2.50
2024-05-09T01:34:51.119Z,2.50
2024-05-09T01:37:22.266Z,2.75
2024-05-09T01:39:55.672Z,2.97
2024-05-09T01:42:26.773Z,2.97
2024-05-09T01:44:57.419Z,2.47
2024-05-09T01:47:28.693Z,2.58
2024-05-09T01:49:59.430Z,2.65
2024-05-09T01:52:30.719Z,2.75
2024-05-09T01:55:06.740Z,2.60
2024-05-09T01:57:38.067Z,2.83
2024-05-09T02:00:15.588Z,2.60
2024-05-09T02:02:48.078Z,2.47
2024-05-09T02:05:19.166Z,2.40
2024-05-09T02:07:50.368Z,2.88
2024-05-09T02:10:31.670Z,2.22
2024-05-09T02:13:03.996Z,2.97
2024-05-09T02:15:34.636Z,2.60
2024-05-09T02:18:06.413Z,2.50
2024-05-09T02:20:41.755Z,2.55
2024-05-09T02:23:13.989Z,2.25
2024-05-09T02:25:47.573Z,2.30
2024-05-09T02:28:18.676Z,2.25
2024-05-09T02:30:49.355Z,2.65
2024-05-09T02:33:17.924Z,2.75
2024-05-09T02:35:48.647Z,2.75
2024-05-09T02:38:17.354Z,2.40
2024-05-09T02:40:50.709Z,3.10
2024-05-09T02:43:19.199Z,3.22
2024-05-09T02:45:49.900Z,2.70
2024-05-09T02:48:18.658Z,3.25
2024-05-09T02:50:49.517Z,3.30
2024-05-09T02:53:22.547Z,2.53
2024-05-09T02:55:53.416Z,2.60
2024-05-09T02:58:24.549Z,2.28
2024-05-09T03:00:52.713Z,2.42
2024-05-09T03:03:24.253Z,2.72
2024-05-09T03:05:52.742Z,3.10
2024-05-09T03:08:23.833Z,2.90
2024-05-09T03:10:57.299Z,3.20
2024-05-09T03:13:25.891Z,2.97
2024-05-09T03:15:56.505Z,2.97
2024-05-09T03:18:25.198Z,2.95
2024-05-09T03:20:56.011Z,3.33
2024-05-09T03:23:24.530Z,2.90
2024-05-09T03:25:57.930Z,3.00
2024-05-09T03:28:26.401Z,2.75
2024-05-09T03:30:57.092Z,2.92
2024-05-09T03:33:25.810Z,2.78
2024-05-09T03:35:56.890Z,2.92
2024-05-09T03:38:28.072Z,2.50
2024-05-09T03:41:01.489Z,2.90
2024-05-09T03:43:32.623Z,3.55
2024-05-09T03:46:00.716Z,3.22
2024-05-09T03:48:31.945Z,2.50
2024-05-09T03:51:00.195Z,2.78
2024-05-09T03:53:31.531Z,3.72
2024-05-09T03:56:08.202Z,2.90
2024-05-09T03:58:39.404Z,3.00
2024-05-09T04:01:07.543Z,3.22
2024-05-09T04:06:07.707Z,3.08
2024-05-09T04:08:39.009Z,3.05
2024-05-09T04:11:10.265Z,3.00
2024-05-09T04:13:41.378Z,2.83
2024-05-09T04:16:11.568Z,2.92
2024-05-09T04:18:43.158Z,3.20
2024-05-09T04:21:11.370Z,3.00
2024-05-09T04:23:42.621Z,2.88
2024-05-09T04:26:14.216Z,2.60
2024-05-09T04:28:45.382Z,3.17
2024-05-09T04:31:13.457Z,2.90
2024-05-09T04:33:44.735Z,3.53
2024-05-09T04:36:13.023Z,3.40
2024-05-09T04:38:44.113Z,3.60
2024-05-09T04:41:15.015Z,2.97
2024-05-09T04:43:46.180Z,2.55
2024-05-09T04:46:15.555Z,3.08
2024-05-09T04:48:46.738Z,2.70
2024-05-09T04:51:15.417Z,2.80
2024-05-09T04:53:46.488Z,2.78
2024-05-09T04:56:17.214Z,3.55
2024-05-09T04:58:48.364Z,3.05
2024-05-09T05:01:17.968Z,3.50
2024-05-09T05:03:49.254Z,2.70
2024-05-09T05:06:17.539Z,3.00
2024-05-09T05:08:48.566Z,2.80
2024-05-09T05:11:19.390Z,2.80
2024-05-09T05:13:50.583Z,2.95
2024-05-09T05:16:18.671Z,3.10
2024-05-09T05:18:49.862Z,3.00
2024-05-09T05:21:18.122Z,3.38
2024-05-09T05:23:49.360Z,2.67
2024-05-09T05:26:20.743Z,2.45
2024-05-09T05:28:51.916Z,3.15
2024-05-09T05:31:20.273Z,3.30
2024-05-09T05:33:52.092Z,2.40
2024-05-09T05:36:20.279Z,2.70
2024-05-09T05:38:51.791Z,2.70
2024-05-09T05:41:22.537Z,2.88
2024-05-09T05:43:53.720Z,2.72
2024-05-09T05:46:22.005Z,2.90
2024-05-09T05:48:53.336Z,3.13
2024-05-09T05:51:21.576Z,2.63
2024-05-09T05:53:52.718Z,3.10
2024-05-09T05:56:23.508Z,2.92
2024-05-09T05:58:54.694Z,2.55
2024-05-09T06:01:22.948Z,2.88
2024-05-09T06:03:54.178Z,3.50
2024-05-09T06:09:51.945Z,3.00
2024-05-09T06:12:22.843Z,3.50
2024-05-09T06:14:54.006Z,2.75
2024-05-09T06:17:22.310Z,3.00
2024-05-09T06:19:53.849Z,3.17
2024-05-09T06:22:22.046Z,3.40
2024-05-09T06:24:53.259Z,3.00
2024-05-09T06:27:24.180Z,3.58
2024-05-09T06:29:55.224Z,3.40
2024-05-09T06:32:23.571Z,3.35
2024-05-09T06:34:54.793Z,2.95
2024-05-09T06:37:22.894Z,3.13
2024-05-09T06:39:53.966Z,2.95
2024-05-09T06:42:24.693Z,3.00
2024-05-09T06:44:55.846Z,3.03
2024-05-09T06:47:24.144Z,2.70
2024-05-09T06:49:55.458Z,2.75
2024-05-09T06:52:23.636Z,3.08
2024-05-09T06:54:55.406Z,2.90
2024-05-09T06:57:26.173Z,2.83
2024-05-09T06:59:59.924Z,2.15
2024-05-09T07:02:28.241Z,3.00
2024-05-09T07:04:59.487Z,2.70
2024-05-09T07:07:27.711Z,2.65
2024-05-09T07:09:58.780Z,2.40
2024-05-09T07:12:29.531Z,2.22
2024-05-09T07:15:00.725Z,2.35
2024-05-09T07:17:29.180Z,2.67
2024-05-09T07:20:02.406Z,2.97
2024-05-09T07:22:31.923Z,2.00
2024-05-09T07:25:06.304Z,2.10
2024-05-09T07:27:37.263Z,1.98
2024-05-09T07:30:13.577Z,2.13
2024-05-09T07:32:45.377Z,2.05
2024-05-09T07:35:16.716Z,2.28
2024-05-09T07:37:44.801Z,2.10
2024-05-09T07:40:24.983Z,2.20
2024-05-09T07:43:03.903Z,1.67
2024-05-09T07:53:37.856Z,2.05
2024-05-09T07:56:05.625Z,2.20
2024-05-09T07:58:39.214Z,2.28
2024-05-09T08:01:07.812Z,2.20
2024-05-09T08:03:38.768Z,2.13
2024-05-09T08:06:07.375Z,2.22
2024-05-09T08:08:38.040Z,2.15
2024-05-09T08:11:07.104Z,2.10
2024-05-09T08:13:40.504Z,2.17
2024-05-09T08:16:10.059Z,1.98
2024-05-09T08:18:41.128Z,2.20
2024-05-09T08:21:09.761Z,2.00
2024-05-09T08:23:40.651Z,2.00
2024-05-09T08:26:09.216Z,2.25
2024-05-09T08:28:42.591Z,2.22
2024-05-09T08:31:11.869Z,2.45
2024-05-09T08:33:48.226Z,1.95
2024-05-09T08:36:17.333Z,2.45
2024-05-09T08:38:48.404Z,1.98
2024-05-09T08:41:17.003Z,2.38
2024-05-09T08:43:50.469Z,2.22
2024-05-09T08:46:19.295Z,2.10
2024-05-09T08:48:52.881Z,2.40
2024-05-09T08:51:21.764Z,2.38
2024-05-09T08:53:52.550Z,2.15
2024-05-09T08:56:27.835Z,2.25
2024-05-09T08:59:05.045Z,2.03
2024-05-09T09:01:37.838Z,1.98
2024-05-09T09:04:11.062Z,2.42
2024-05-09T09:06:40.240Z,1.90
2024-05-09T09:09:13.616Z,1.90
2024-05-09T09:11:42.296Z,2.38
2024-05-09T09:14:15.698Z,1.90
2024-05-09T09:16:46.140Z,2.03
2024-05-09T09:19:17.096Z,2.03
2024-05-09T09:21:45.815Z,3.15
2024-05-09T09:24:17.200Z,2.28
2024-05-09T09:26:46.983Z,2.20
2024-05-09T09:29:24.679Z,2.38
2024-05-09T09:31:59.142Z,2.33
2024-05-09T09:34:31.711Z,2.70
2024-05-09T09:37:06.626Z,2.13
2024-05-09T09:39:39.997Z,2.50
2024-05-09T09:42:11.826Z,1.70
2024-05-09T09:44:54.468Z,2.20
2024-05-09T09:47:29.831Z,2.20
2024-05-09T09:50:04.181Z,2.15
2024-05-09T09:52:36.784Z,2.33
2024-05-09T09:55:09.653Z,1.90
2024-05-09T09:57:40.502Z,2.00
2024-05-09T10:00:24.589Z,1.50
2024-05-09T10:02:59.073Z,2.05
2024-05-09T10:05:31.035Z,2.03
2024-05-09T10:08:04.975Z,1.85
2024-05-09T10:10:37.475Z,1.90
2024-05-09T10:13:07.928Z,1.90
2024-05-09T10:15:56.787Z,2.42
2024-05-09T10:18:36.832Z,2.50
2024-05-09T10:21:19.181Z,2.00
2024-05-09T10:23:58.962Z,2.40
2024-05-09T10:26:37.013Z,2.88
2024-05-09T10:29:13.297Z,2.10
2024-05-09T10:31:48.948Z,2.20
2024-05-09T10:34:19.573Z,2.38
2024-05-09T10:36:55.576Z,1.90
2024-05-09T10:39:25.981Z,1.92
2024-05-09T10:41:56.751Z,1.70
2024-05-09T10:44:25.272Z,2.17
2024-05-09T10:46:58.880Z,2.20
2024-05-09T10:49:28.141Z,2.25
2024-05-09T10:51:58.956Z,2.28
2024-05-09T10:54:36.663Z,2.42
2024-05-09T10:57:08.657Z,2.08
2024-05-09T10:59:39.846Z,2.58
2024-05-09T11:02:15.087Z,2.00
2024-05-09T11:04:45.415Z,2.50
2024-05-09T11:07:18.691Z,2.47
2024-05-09T11:09:48.328Z,2.42
2024-05-09T11:12:21.323Z,2.50
2024-05-09T11:14:54.519Z,2.33
2024-05-09T11:17:27.926Z,2.00
2024-05-09T11:19:56.492Z,2.47
2024-05-09T11:22:33.946Z,2.50
2024-05-09T11:25:06.249Z,2.33
2024-05-09T11:27:37.159Z,1.85
2024-05-09T11:30:26.694Z,1.85
2024-05-09T11:33:05.015Z,2.25
2024-05-09T11:35:33.504Z,1.92
2024-05-09T11:38:04.129Z,2.40
2024-05-09T11:40:34.574Z,1.90
2024-05-09T11:43:05.542Z,2.25
2024-05-09T11:45:34.255Z,2.30
2024-05-09T11:48:08.600Z,1.63
2024-05-09T11:50:37.670Z,1.98
2024-05-09T11:53:09.086Z,2.22
2024-05-09T11:55:38.296Z,1.92
2024-05-09T11:58:09.775Z,1.88
2024-05-09T12:00:38.472Z,2.10
2024-05-09T12:03:11.995Z,1.80
2024-05-09T12:05:41.004Z,1.67
2024-05-09T12:08:12.208Z,1.92
2024-05-09T12:10:41.159Z,1.50
2024-05-09T12:13:12.039Z,1.80
2024-05-09T12:15:40.652Z,1.70
2024-05-09T12:18:14.526Z,1.42
2024-05-09T12:20:43.699Z,1.90
2024-05-09T12:23:14.395Z,1.80
2024-05-09T12:25:43.007Z,1.70
2024-05-09T12:28:14.035Z,2.00
2024-05-09T12:30:42.656Z,1.83
2024-05-09T12:33:16.641Z,2.00
2024-05-09T12:35:47.359Z,2.00
2024-05-09T12:38:20.919Z,1.52
2024-05-09T12:40:49.432Z,1.80
2024-05-09T12:43:20.629Z,1.92
2024-05-09T12:45:49.299Z,1.80
2024-05-09T12:48:22.837Z,1.75
2024-05-09T12:50:51.958Z,1.67
2024-05-09T12:53:22.682Z,1.58
2024-05-09T12:55:56.885Z,1.60
2024-05-09T12:58:30.933Z,1.75
2024-05-09T13:00:59.550Z,1.67
2024-05-09T13:03:33.169Z,1.85
2024-05-09T13:06:02.058Z,2.42
2024-05-09T13:08:32.912Z,2.10
2024-05-09T13:11:01.718Z,1.73
2024-05-09T13:13:32.367Z,1.88
2024-05-09T13:16:00.965Z,1.67
2024-05-09T13:18:36.609Z,2.20
2024-05-09T13:21:05.772Z,1.70
2024-05-09T13:23:38.040Z,1.48
2024-05-09T13:26:06.692Z,1.90
2024-05-09T13:28:37.647Z,1.70
2024-05-09T13:31:06.215Z,1.88
2024-05-09T13:33:39.799Z,1.92
2024-05-09T13:36:08.894Z,1.70
2024-05-09T13:38:39.853Z,1.35
2024-05-09T13:41:08.839Z,1.70
2024-05-09T13:43:39.498Z,1.90
2024-05-09T13:46:08.159Z,1.70
2024-05-09T13:48:42.346Z,1.73
2024-05-09T13:51:11.159Z,2.25
2024-05-09T13:53:41.803Z,1.67
2024-05-09T13:56:10.404Z,1.30
2024-05-09T13:58:42.341Z,1.80
2024-05-09T14:01:10.929Z,1.67
2024-05-09T14:03:44.404Z,1.90
2024-05-09T14:06:13.354Z,2.10
2024-05-09T14:08:44.168Z,1.70
2024-05-09T14:11:12.751Z,1.63
2024-05-09T14:13:43.611Z,1.85
2024-05-09T14:16:12.298Z,1.77
2024-05-09T14:18:45.876Z,1.60
2024-05-09T14:21:14.472Z,1.98
2024-05-09T14:23:45.194Z,1.85
2024-05-09T14:26:14.313Z,1.55
2024-05-09T14:28:45.217Z,1.70
2024-05-09T14:31:13.770Z,1.92
2024-05-09T14:33:47.292Z,2.30
2024-05-09T14:36:16.009Z,1.80
2024-05-09T14:38:47.747Z,2.00
2024-05-09T14:41:16.258Z,2.00
2024-05-09T14:43:46.980Z,2.05
2024-05-09T14:46:15.830Z,1.90
2024-05-09T14:48:49.409Z,1.50
2024-05-09T14:51:19.793Z,1.88
2024-05-09T14:53:50.543Z,2.08
2024-05-09T14:56:19.220Z,2.08
2024-05-09T14:58:49.904Z,1.83
2024-05-09T15:01:20.758Z,1.80
2024-05-09T15:03:54.673Z,1.80
2024-05-09T15:06:23.642Z,2.15
2024-05-09T15:08:59.899Z,2.00
2024-05-09T15:11:28.356Z,1.77
2024-05-09T15:13:59.141Z,2.00
2024-05-09T15:16:28.460Z,1.88
2024-05-09T15:19:02.196Z,1.88
2024-05-09T15:21:33.537Z,2.00
2024-05-09T15:24:01.731Z,1.73
2024-05-09T15:26:32.910Z,1.85
2024-05-09T15:29:00.979Z,1.88
2024-05-09T15:31:32.773Z,1.70
2024-05-09T15:34:03.778Z,1.60
2024-05-09T15:36:35.095Z,1.70
2024-05-09T15:39:03.374Z,1.65
2024-05-09T15:41:34.547Z,1.60
2024-05-09T15:44:02.618Z,1.92
2024-05-09T15:46:34.088Z,1.75
2024-05-09T15:49:05.018Z,1.67
2024-05-09T15:51:36.117Z,2.15
2024-05-09T15:54:04.322Z,1.88
2024-05-09T15:56:35.919Z,2.00
2024-05-09T15:59:04.153Z,1.48
2024-05-09T16:01:35.434Z,2.53
2024-05-09T16:04:06.555Z,1.40
2024-05-09T16:06:37.906Z,2.00
2024-05-09T16:09:06.640Z,2.00
2024-05-09T16:11:37.859Z,1.73
2024-05-09T16:14:05.982Z,2.72
2024-05-09T16:16:37.425Z,1.98
2024-05-09T16:19:09.943Z,1.80
2024-05-09T16:21:41.404Z,1.60
2024-05-09T16:24:09.510Z,1.88
2024-05-09T16:26:40.672Z,1.52
2024-05-09T16:29:09.284Z,1.80
2024-05-09T16:31:40.473Z,1.58
2024-05-09T16:34:11.563Z,1.80
2024-05-09T16:36:44.074Z,1.50
2024-05-09T16:39:12.238Z,1.95
2024-05-09T16:41:43.321Z,1.55
2024-05-09T16:44:11.356Z,1.70
2024-05-09T16:46:42.616Z,1.75
2024-05-09T16:49:13.654Z,1.75
2024-05-09T16:51:44.824Z,1.90
2024-05-09T16:54:12.908Z,1.45
2024-05-09T16:56:43.974Z,1.55
2024-05-09T16:59:12.167Z,1.50
2024-05-09T17:01:43.435Z,1.63
2024-05-09T17:04:14.434Z,1.42
2024-05-09T17:06:46.075Z,1.77
2024-05-09T17:09:15.738Z,1.60
2024-05-09T17:11:49.950Z,1.90
2024-05-09T17:14:20.795Z,1.63
2024-05-09T17:16:52.009Z,2.17
2024-05-09T17:19:26.021Z,1.80
2024-05-09T17:21:54.572Z,1.73
2024-05-09T17:24:25.322Z,1.58
2024-05-09T17:26:53.870Z,1.50
2024-05-09T17:29:24.947Z,1.85
2024-05-09T17:31:53.402Z,1.48
2024-05-09T17:34:27.819Z,1.60
2024-05-09T17:36:56.524Z,1.60
2024-05-09T17:39:27.177Z,1.25
2024-05-09T17:41:55.618Z,1.33
2024-05-09T17:44:27.170Z,1.80
2024-05-09T17:46:56.049Z,1.50
2024-05-09T17:49:29.599Z,2.10
2024-05-09T17:51:58.258Z,1.80
2024-05-09T17:54:28.982Z,1.67
2024-05-09T17:56:57.602Z,1.55
2024-05-09T17:59:29.440Z,1.48
2024-05-09T18:01:58.111Z,1.15
2024-05-09T18:04:33.457Z,1.63
2024-05-09T18:07:02.532Z,2.00
2024-05-09T18:09:33.297Z,1.60
2024-05-09T18:12:02.065Z,1.50
2024-05-09T18:14:32.866Z,1.65
2024-05-09T18:17:01.613Z,1.85
2024-05-09T18:19:35.217Z,1.73
2024-05-09T18:22:03.941Z,1.90
2024-05-09T18:24:34.755Z,1.60
2024-05-09T18:27:03.357Z,1.67
2024-05-09T18:29:34.402Z,1.55
2024-05-09T18:32:03.002Z,1.50
2024-05-09T18:34:36.383Z,1.60
2024-05-09T18:37:05.547Z,1.65
2024-05-09T18:39:36.608Z,1.58
2024-05-09T18:42:08.914Z,2.00
2024-05-09T18:44:36.998Z,1.60
2024-05-09T18:47:10.530Z,1.80
2024-05-09T18:49:41.435Z,1.77
2024-05-09T18:52:12.826Z,1.70
2024-05-09T18:54:41.192Z,2.17
2024-05-09T18:57:12.358Z,1.80
2024-05-09T18:59:40.385Z,2.20
2024-05-09T19:02:11.588Z,2.60
2024-05-09T19:04:42.537Z,2.30
2024-05-09T19:07:14.723Z,2.35
2024-05-09T19:09:43.032Z,2.20
2024-05-09T19:12:17.266Z,2.35
2024-05-09T19:14:45.357Z,2.30
2024-05-09T19:17:16.632Z,2.10
2024-05-09T19:19:48.976Z,2.10
2024-05-09T19:22:20.381Z,2.88
2024-05-09T19:24:48.631Z,2.60
2024-05-09T19:27:19.784Z,2.33
2024-05-09T19:29:47.835Z,2.30
2024-05-09T19:32:19.126Z,2.20
2024-05-09T19:34:49.864Z,2.05
2024-05-09T19:37:21.066Z,2.60
2024-05-09T19:39:49.164Z,2.42
2024-05-09T19:42:20.901Z,2.50
2024-05-09T19:44:49.051Z,2.38
2024-05-09T19:47:20.319Z,2.53
2024-05-09T19:49:51.530Z,2.83
2024-05-09T19:52:22.799Z,2.80
2024-05-09T19:54:50.860Z,2.75
2024-05-09T19:57:22.353Z,2.85
2024-05-09T19:59:50.521Z,2.83
2024-05-09T20:02:21.772Z,2.70
2024-05-09T20:04:52.617Z,2.92
2024-05-09T20:07:23.891Z,2.70
2024-05-09T20:09:51.992Z,3.05
2024-05-09T20:12:23.111Z,3.00
2024-05-09T20:14:51.185Z,2.90
2024-05-09T20:17:22.266Z,2.50
2024-05-09T20:19:53.180Z,2.33
2024-05-09T20:22:24.381Z,3.30
2024-05-09T20:24:52.535Z,3.10
2024-05-09T20:27:23.635Z,2.85
2024-05-09T20:29:51.668Z,3.05
2024-05-09T20:32:22.964Z,2.90
2024-05-09T20:34:53.731Z,3.10
2024-05-09T20:37:24.933Z,3.00
2024-05-09T20:39:53.084Z,3.38
2024-05-09T20:42:24.213Z,2.90
2024-05-09T20:44:52.440Z,3.50
2024-05-09T20:47:23.588Z,3.00
2024-05-09T20:49:54.468Z,3.28
2024-05-09T20:52:25.561Z,3.10
2024-05-09T20:54:53.706Z,3.63
2024-05-09T20:57:24.854Z,3.15
2024-05-09T20:59:52.990Z,3.17
2024-05-09T21:02:24.238Z,2.65
2024-05-09T21:04:55.495Z,3.17
2024-05-09T21:07:26.873Z,3.45
2024-05-09T21:09:55.195Z,3.08
2024-05-09T21:12:26.415Z,3.42
2024-05-09T21:14:54.917Z,3.33
2024-05-09T21:17:26.333Z,3.47
2024-05-09T21:19:57.082Z,3.33
2024-05-09T21:22:28.319Z,3.13
2024-05-09T21:24:56.434Z,2.88
2024-05-09T21:27:27.557Z,3.00
2024-05-09T21:29:55.577Z,3.10
2024-05-09T21:32:26.726Z,3.05
2024-05-09T21:34:57.598Z,4.28
2024-05-09T21:37:28.690Z,3.72
2024-05-09T21:39:56.876Z,3.45
2024-05-09T21:42:28.085Z,3.83
2024-05-09T21:44:56.201Z,3.20
2024-05-09T21:47:27.426Z,3.70
2024-05-09T21:49:58.284Z,4.20
2024-05-09T21:52:29.598Z,3.38
2024-05-09T21:54:57.896Z,3.22
2024-05-09T21:57:29.080Z,3.25
2024-05-09T21:59:57.222Z,3.40
2024-05-09T22:02:28.588Z,3.47
2024-05-09T22:04:59.921Z,3.90
2024-05-09T22:07:31.122Z,3.22
2024-05-09T22:09:59.313Z,3.67
2024-05-09T22:12:30.500Z,3.40
2024-05-09T22:14:58.671Z,3.55
2024-05-09T22:17:29.808Z,3.45
2024-05-09T22:20:00.501Z,3.55
2024-05-09T22:22:32.639Z,3.03
2024-05-09T22:25:01.226Z,3.33
2024-05-09T22:27:32.410Z,3.78
2024-05-09T22:30:00.512Z,4.00
2024-05-09T22:32:36.914Z,3.90
2024-05-09T22:35:11.287Z,3.78
2024-05-09T22:37:42.437Z,4.00
2024-05-09T22:40:15.120Z,3.80
2024-05-09T22:42:51.649Z,3.97
2024-05-09T22:45:19.779Z,4.50
2024-05-09T22:47:51.011Z,4.53
2024-05-09T22:50:26.827Z,4.32
2024-05-09T22:53:02.102Z,4.40
2024-05-09T22:55:30.554Z,4.45
2024-05-09T22:58:01.803Z,4.47
2024-05-09T23:00:32.206Z,4.90
2024-05-09T23:03:04.687Z,4.93
2024-05-09T23:05:35.615Z,4.45
2024-05-09T23:08:07.353Z,4.70
2024-05-09T23:10:37.718Z,5.28
2024-05-09T23:13:10.241Z,4.15
2024-05-09T23:15:38.798Z,4.90
2024-05-09T23:18:10.859Z,5.90
2024-05-09T23:20:41.724Z,5.45
2024-05-09T23:23:13.101Z,5.00
2024-05-09T23:25:42.185Z,5.00
2024-05-09T23:28:14.116Z,5.30
2024-05-09T23:30:42.596Z,5.70
2024-05-09T23:33:15.686Z,5.18
2024-05-09T23:35:46.700Z,4.90
2024-05-09T23:38:20.918Z,5.18
2024-05-09T23:40:50.498Z,5.55
2024-05-09T23:43:22.302Z,4.88
2024-05-09T23:45:50.495Z,5.72
2024-05-09T23:48:21.664Z,5.28
2024-05-09T23:50:52.346Z,6.03
2024-05-09T23:53:23.489Z,5.28
2024-05-09T23:55:51.538Z,4.82
2024-05-09T23:58:22.829Z,5.07
